Latest Coastal Weather Observations for Minlaton Airport

IDS60701

Issued at 12:15 am CST Friday 25 April 2014 (issued every 10 minutes, with the page automatically refreshed every 10 minutes)

About coastal observations | Map of coastal stations | Coastal observations for SA | Marine services | Other Formats
Station Details ID: 022031 Name: MINLATON AERO Lat: -34.75 Lon: 137.53 Height: 32.0 m
Data from the previous 72 hours. | See also: Recent months at Minlaton Airport
Date/Time
CST
Temp

°C
Wind Pressure Rain
since 9am
mm
Weather Cloud Vis
km
Sea
Height
m
Swell
Dir
 
Speed
knots
Gust
knots
hPa Trend Height
m
Period
s
Dir
25/12:00am 10.1 ESE 10 11 1018.6 - 0.2 - - - - - - -
 
Date/Time
CST
Temp

°C
Wind Pressure Rain
since 9am
mm
Weather Cloud Vis
km
Sea
Height
m
Swell
Dir
 
Speed
knots
Gust
knots
hPa Trend Height
m
Period
s
Dir
24/11:30pm 10.1 ESE 11 13 1019.0 - 0.2 - - - - - - -
24/11:00pm 10.2 E 12 13 1019.3 - 0.2 - - - - - - -
24/10:30pm 10.6 E 11 12 1019.5 - 0.2 - - - - - - -
24/10:00pm 11.7 ESE 11 13 1019.3 - 0.2 - - - - - - -
24/09:30pm 11.9 ESE 13 14 1019.3 - 0.2 - - - - - - -
24/09:00pm 11.4 ESE 11 13 1019.3 - 0.2 - - - - - - -
24/08:30pm 11.7 ESE 11 11 1019.3 - 0.2 - - - - - - -
24/08:00pm 11.7 ESE 11 12 1019.1 - 0.2 - - - - - - -
24/07:30pm 11.8 SE 10 12 1018.9 - 0.2 - - - - - - -
24/07:00pm 12.0 ESE 11 12 1018.8 - 0.2 - - - - - - -
24/06:30pm 12.5 ESE 10 11 1018.6 - 0.2 - - - - - - -
24/06:00pm 13.4 SE 9 11 1018.6 - 0.2 - - - - - - -
24/05:30pm 15.8 SE 12 15 1018.2 - 0.2 - - - - - - -
24/05:00pm 17.1 SE 12 16 1018.2 - 0.2 - - - - - - -
24/04:30pm 17.9 SE 12 16 1018.0 - 0.2 - - - - - - -
24/04:00pm 18.4 SE 14 18 1017.9 - 0.2 - - - - - - -
24/03:30pm 19.6 S 11 15 1017.9 - 0.2 - - - - - - -
24/03:00pm 19.7 SSE 11 15 1017.8 - 0.2 - - - - - - -
24/02:30pm 19.8 S 12 19 1017.7 - 0.2 - - - - - - -
24/02:00pm 20.6 SSE 13 16 1017.7 - 0.2 - - - - - - -
24/01:30pm 19.3 SSE 13 17 1018.0 - 0.2 - - - - - - -
24/01:00pm 19.7 SSE 12 19 1018.1 - 0.2 - - - - - - -
24/12:30pm 19.7 S 12 16 1018.5 - 0.0 - - - - - - -
24/12:00pm 19.8 SSE 13 16 1018.8 - 0.0 - - - - - - -
24/11:30am 18.1 SSE 14 18 1018.9 - 0.0 - - - - - - -
24/11:00am 19.2 SSE 15 19 1018.9 - 0.0 - - - - - - -
24/10:30am 17.6 S 16 19 1018.9 - 0.0 - - - - - - -
24/10:00am 16.5 S 17 20 1018.8 - 0.0 - - - - - - -
24/09:30am 17.6 SSE 16 19 1018.7 - 0.0 - - - - - - -
24/09:00am 17.0 SSE 14 17 1018.6 - 1.4 - - - - - - -
24/08:30am 15.8 S 8 10 1018.6 - 1.4 - - - - - - -
24/08:00am 14.8 S 9 11 1018.1 - 1.4 - - - - - - -
24/07:30am 13.4 S 7 8 1017.5 - 1.4 - - - - - - -
24/07:00am 12.6 S 6 7 1017.1 - 1.4 - - - - - - -
24/06:30am 14.1 S 8 9 1016.8 - 1.4 - - - - - - -
24/06:00am 14.6 SSW 9 11 1016.4 - 1.4 - - - - - - -
24/05:30am 15.2 SW 10 12 1016.1 - 1.4 - - - - - - -
24/05:00am 15.6 SW 18 21 1015.9 - 1.0 - - - - - - -
24/04:30am 16.9 W 12 15 1015.4 - 0.0 - - - - - - -
24/04:00am 16.9 W 12 16 1015.3 - 0.0 - - - - - - -
24/03:30am 16.1 W 12 14 1015.3 - 0.0 - - - - - - -
24/03:00am 15.9 W 11 13 1015.2 - 0.0 - - - - - - -
24/02:30am 16.4 W 13 16 1015.3 - 0.0 - - - - - - -
24/02:00am 16.7 W 15 19 1015.4 - 0.0 - - - - - - -
24/01:30am 16.7 W 14 20 1015.5 - 0.0 - - - - - - -
24/01:00am 17.0 W 13 16 1015.5 - 0.0 - - - - - - -
24/12:30am 16.8 W 10 12 1015.5 - 0.0 - - - - - - -
24/12:00am 16.6 WSW 13 18 1015.5 - 0.0 - - - - - - -
 
Date/Time
CST
Temp

°C
Wind Pressure Rain
since 9am
mm
Weather Cloud Vis
km
Sea
Height
m
Swell
Dir
 
Speed
knots
Gust
knots
hPa Trend Height
m
Period
s
Dir
23/11:30pm 17.0 W 17 21 1015.6 - 0.0 - - - - - - -
23/11:00pm 17.7 W 17 20 1015.6 - 0.0 - - - - - - -
23/10:30pm 17.7 W 15 18 1015.7 - 0.0 - - - - - - -
23/10:00pm 17.3 W 13 16 1015.7 - 0.0 - - - - - - -
23/09:30pm 13.3 NNW 8 9 1015.8 - 0.0 - - - - - - -
23/09:00pm 13.8 N 7 8 1015.5 - 0.0 - - - - - - -
23/08:30pm 13.3 N 6 7 1015.4 - 0.0 - - - - - - -
23/08:00pm 14.0 N 9 9 1015.1 - 0.0 - - - - - - -
23/07:30pm 14.9 N 9 10 1015.1 - 0.0 - - - - - - -
23/07:00pm 13.9 NNE 9 9 1015.0 - 0.0 - - - - - - -
23/06:30pm 14.1 N 8 8 1015.1 - 0.0 - - - - - - -
23/06:00pm 14.9 NNW 7 8 1014.8 - 0.0 - - - - - - -
23/05:30pm 17.0 NW 10 11 1014.7 - 0.0 - - - - - - -
23/05:00pm 17.9 NW 10 14 1014.7 - 0.0 - - - - - - -
23/04:30pm 18.6 NW 11 13 1014.6 - 0.0 - - - - - - -
23/04:00pm 18.7 NW 12 15 1014.8 - 0.0 - - - - - - -
23/03:30pm 18.2 NW 11 13 1014.6 - 0.0 - - - - - - -
23/03:00pm 19.1 NNW 11 15 1014.4 - 0.0 - - - - - - -
23/02:30pm 18.8 NNW 8 13 1014.7 - 0.0 - - - - - - -
23/02:00pm 18.7 NW 9 13 1015.1 - 0.0 - - - - - - -
23/01:30pm 18.7 WNW 9 13 1015.5 - 0.0 - - - - - - -
23/01:00pm 18.6 WNW 8 13 1015.9 - 0.0 - - - - - - -
23/12:30pm 19.1 WNW 7 11 1016.5 - 0.0 - - - - - - -
23/12:00pm 18.7 W 7 13 1017.1 - 0.0 - - - - - - -
23/11:30am 18.0 WNW 8 11 1017.6 - 0.0 - - - - - - -
23/11:00am 18.0 NW 6 10 1017.9 - 0.0 - - - - - - -
23/10:30am 17.6 WNW 7 9 1018.2 - 0.0 - - - - - - -
23/10:00am 17.5 NW 7 12 1018.2 - 0.0 - - - - - - -
23/09:30am 17.0 N 5 8 1018.4 - 0.0 - - - - - - -
23/09:00am 15.6 N 7 8 1018.5 - 0.0 - - - - - - -
23/08:30am 13.5 NNE 6 8 1018.4 - 0.0 - - - - - - -
23/08:00am 11.8 ENE 8 9 1018.1 - 0.0 - - - - - - -
23/07:30am 9.9 ENE 8 9 1017.4 - 0.0 - - - - - - -
23/07:00am 9.5 ENE 9 9 1017.2 - 0.0 - - - - - - -
23/06:30am 8.4 ENE 7 11 1017.3 - 0.0 - - - - - - -
23/06:00am 8.2 E 6 7 1017.3 - 0.0 - - - - - - -
23/05:30am 8.7 E 8 8 1017.3 - 0.0 - - - - - - -
23/05:00am 8.0 E 8 11 1017.1 - 0.0 - - - - - - -
23/04:30am 7.9 E 8 10 1017.1 - 0.0 - - - - - - -
23/04:00am 8.0 E 5 6 1017.3 - 0.0 - - - - - - -
23/03:30am 8.1 ESE 4 5 1017.5 - 0.0 - - - - - - -
23/03:00am 8.8 E 7 8 1017.7 - 0.0 - - - - - - -
23/02:30am 9.8 E 7 8 1017.8 - 0.0 - - - - - - -
23/02:00am 9.2 ESE 7 8 1018.1 - 0.0 - - - - - - -
23/01:30am 9.7 ESE 7 8 1018.2 - 0.0 - - - - - - -
23/01:00am 9.5 SE 6 7 1018.5 - 0.0 - - - - - - -
23/12:30am 10.2 SSE 5 6 1018.7 - 0.0 - - - - - - -
23/12:00am 11.3 S 4 6 1018.8 - 0.0 - - - - - - -
 
Date/Time
CST
Temp

°C
Wind Pressure Rain
since 9am
mm
Weather Cloud Vis
km
Sea
Height
m
Swell
Dir
 
Speed
knots
Gust
knots
hPa Trend Height
m
Period
s
Dir
22/11:30pm 12.7 SE 9 9 1018.9 - 0.0 - - - - - - -
22/11:00pm 13.1 SE 9 10 1019.1 - 0.0 - - - - - - -
22/10:30pm 12.1 SE 10 10 1019.3 - 0.0 - - - - - - -
22/10:00pm 11.7 SE 8 8 1019.4 - 0.0 - - - - - - -
22/09:30pm 12.8 SE 7 8 1019.3 - 0.0 - - - - - - -
22/09:00pm 13.5 SE 4 5 1019.0 - 0.0 - - - - - - -
22/08:30pm 14.1 SSE 6 8 1019.1 - 0.0 - - - - - - -
22/08:00pm 14.9 S 8 9 1019.2 - 0.0 - - - - - - -
22/07:30pm 15.3 SSE 7 9 1019.3 - 0.0 - - - - - - -
22/07:00pm 15.2 SSE 7 8 1018.9 - 0.0 - - - - - - -
22/06:30pm 15.8 SE 9 11 1018.3 - 0.0 - - - - - - -
22/06:00pm 16.1 SSE 8 9 1018.3 - 0.0 - - - - - - -
22/05:30pm 16.9 S 9 11 1018.1 - 0.0 - - - - - - -
22/05:00pm 17.5 S 10 13 1017.8 - 0.0 - - - - - - -
22/04:30pm 19.1 S 12 16 1017.7 - 0.0 - - - - - - -
22/04:00pm 19.0 SSW 12 15 1017.5 - 0.0 - - - - - - -
22/03:30pm 19.7 S 12 16 1017.5 - 0.0 - - - - - - -
22/03:00pm 19.7 SSW 12 17 1017.3 - 0.0 - - - - - - -
22/02:30pm 21.1 SSW 13 18 1017.2 - 0.0 - - - - - - -
22/02:00pm 20.0 SSW 12 18 1017.2 - 0.0 - - - - - - -
22/01:30pm 20.2 SW 13 18 1017.2 - 0.0 - - - - - - -
22/01:00pm 19.9 SSW 12 17 1017.4 - 0.0 - - - - - - -
22/12:30pm 18.9 S 11 17 1017.7 - 0.0 - - - - - - -
22/12:00pm 19.8 SSW 12 17 1017.9 - 0.0 - - - - - - -
22/11:30am 18.5 SSW 13 18 1018.1 - 0.0 - - - - - - -
22/11:00am 19.5 S 14 17 1018.1 - 0.0 - - - - - - -
22/10:30am 18.2 SSW 14 18 1018.2 - 0.0 - - - - - - -
22/10:00am 18.0 S 15 20 1018.2 - 0.0 - - - - - - -
22/09:30am 17.5 S 14 18 1018.0 - 0.0 - - - - - - -
22/09:00am 16.3 S 8 10 1017.8 - 0.0 - - - - - - -
22/08:30am 15.2 S 7 10 1017.7 - 0.0 - - - - - - -
22/08:00am 13.2 SSE 4 5 1017.2 - 0.0 - - - - - - -
22/07:30am 12.5 S 6 7 1016.8 - 0.0 - - - - - - -
22/07:00am 12.1 SSE 6 7 1016.3 - 0.0 - - - - - - -
22/06:30am 12.8 S 8 9 1015.9 - 0.0 - - - - - - -
22/06:00am 13.4 SSW 9 11 1015.3 - 0.0 - - - - - - -
22/05:30am 14.0 S 11 13 1014.9 - 0.0 - - - - - - -
22/05:00am 14.4 SSW 10 14 1014.5 - 0.0 - - - - - - -
22/04:30am 14.4 S 7 8 1014.5 - 0.0 - - - - - - -
22/04:00am 14.9 SSW 9 11 1013.9 - 0.0 - - - - - - -
22/03:30am 15.3 S 9 12 1013.4 - 0.0 - - - - - - -
22/03:00am 15.8 SSW 10 15 1013.4 - 0.0 - - - - - - -
22/02:30am 16.1 S 10 15 1012.9 - 0.0 - - - - - - -
22/02:00am 15.9 S 7 8 1012.9 - 0.0 - - - - - - -
22/01:30am 16.4 S 8 10 1012.5 - 0.0 - - - - - - -
22/01:00am 16.3 SW 7 9 1013.0 - 0.0 - - - - - - -
22/12:30am 16.9 WSW 10 13 1012.4 - 0.0 - - - - - - -

Other Formats:

Comma delimited format used in spreadsheet applications
http://www.bom.gov.au/fwo/IDS60701/IDS60701.95659.axf

JavaScript Object Notation format (JSON) in row-major order
http://www.bom.gov.au/fwo/IDS60701/IDS60701.95659.json